createdAt,value
2022-10-14T00:01:51.335Z,1.10
2022-10-14T00:04:18.217Z,1.38
2022-10-14T00:06:44.943Z,1.20
2022-10-14T00:09:12.147Z,1.33
2022-10-14T00:11:38.874Z,0.98
2022-10-14T00:14:08.586Z,1.27
2022-10-14T00:16:36.970Z,1.30
2022-10-14T00:19:04.157Z,1.38
2022-10-14T00:21:31.326Z,1.10
2022-10-14T00:23:58.154Z,1.30
2022-10-14T00:26:27.111Z,1.17
2022-10-14T00:28:54.323Z,1.20
2022-10-14T00:31:21.257Z,1.20
2022-10-14T00:33:48.170Z,1.30
2022-10-14T00:36:16.064Z,1.20
2022-10-14T00:38:42.812Z,1.30
2022-10-14T00:41:21.198Z,1.10
2022-10-14T00:43:54.662Z,1.20
2022-10-14T00:46:21.654Z,1.00
2022-10-14T00:48:48.374Z,1.10
2022-10-14T00:51:15.135Z,1.30
2022-10-14T00:53:42.616Z,1.20
2022-10-14T00:56:12.933Z,1.25
2022-10-14T00:58:39.738Z,1.35
2022-10-14T01:01:08.052Z,1.17
2022-10-14T01:03:34.880Z,1.27
2022-10-14T01:06:14.920Z,1.27
2022-10-14T01:09:00.386Z,1.27
2022-10-14T01:11:46.258Z,1.30
2022-10-14T01:14:23.611Z,1.00
2022-10-14T01:17:00.567Z,1.23
2022-10-14T01:19:35.229Z,1.10
2022-10-14T01:22:08.211Z,0.93
2022-10-14T01:25:12.679Z,1.20
2022-10-14T01:28:03.553Z,1.20
2022-10-14T01:30:38.652Z,1.00
2022-10-14T01:33:16.774Z,1.13
2022-10-14T01:35:43.440Z,1.10
2022-10-14T01:38:32.495Z,1.33
2022-10-14T01:41:09.898Z,1.10
2022-10-14T01:43:36.627Z,1.20
2022-10-14T01:46:04.422Z,1.23
2022-10-14T01:48:37.091Z,1.00
2022-10-14T01:51:07.122Z,1.55
2022-10-14T01:53:39.073Z,1.27
2022-10-14T01:56:05.788Z,0.98
2022-10-14T01:58:32.680Z,1.10
2022-10-14T02:00:59.549Z,1.10
2022-10-14T02:03:26.305Z,1.17
2022-10-14T02:05:58.469Z,1.38
2022-10-14T02:08:58.570Z,1.15
2022-10-14T02:11:25.350Z,1.15
2022-10-14T02:14:06.127Z,1.42
2022-10-14T02:16:49.401Z,1.23
2022-10-14T02:19:36.356Z,0.90
2022-10-14T02:22:17.115Z,1.17
2022-10-14T02:24:46.173Z,1.08
2022-10-14T02:27:14.927Z,1.00
2022-10-14T02:29:42.745Z,1.00
2022-10-14T02:32:09.490Z,1.10
2022-10-14T02:34:36.196Z,1.38
2022-10-14T02:37:02.943Z,0.95
2022-10-14T02:39:32.893Z,1.00
2022-10-14T02:41:59.610Z,1.02
2022-10-14T02:44:26.361Z,1.35
2022-10-14T02:46:56.198Z,0.85
2022-10-14T02:49:22.975Z,0.85
2022-10-14T02:51:49.691Z,1.00
2022-10-14T02:54:16.391Z,1.17
2022-10-14T02:56:43.242Z,0.90
2022-10-14T02:59:09.969Z,1.05
2022-10-14T03:01:37.911Z,1.15
2022-10-14T03:04:04.872Z,1.02
2022-10-14T03:06:31.567Z,1.00
2022-10-14T03:08:58.265Z,0.90
2022-10-14T03:11:24.990Z,1.38
2022-10-14T03:13:51.706Z,1.00
2022-10-14T03:16:18.986Z,1.05
2022-10-14T03:18:45.903Z,1.00
2022-10-14T03:21:12.670Z,1.05
2022-10-14T03:23:39.377Z,1.38
2022-10-14T03:26:08.518Z,1.02
2022-10-14T03:28:37.499Z,1.15
2022-10-14T03:31:04.260Z,0.95
2022-10-14T03:33:33.732Z,0.80
2022-10-14T03:36:00.636Z,1.00
2022-10-14T03:38:27.960Z,1.00
2022-10-14T03:40:54.877Z,1.10
2022-10-14T03:43:21.595Z,1.15
2022-10-14T03:45:48.305Z,1.30
2022-10-14T03:48:15.049Z,1.05
2022-10-14T03:50:41.755Z,1.15
2022-10-14T03:53:08.487Z,1.00
2022-10-14T03:55:35.275Z,0.80
2022-10-14T03:58:01.970Z,1.15
2022-10-14T04:00:28.672Z,0.93
2022-10-14T04:02:55.391Z,1.10
2022-10-14T04:08:06.231Z,1.10
2022-10-14T04:10:32.951Z,1.00
2022-10-14T04:12:59.645Z,1.20
2022-10-14T04:15:26.476Z,1.10
2022-10-14T04:17:53.205Z,0.98
2022-10-14T04:20:19.948Z,1.10
2022-10-14T04:22:46.704Z,0.98
2022-10-14T04:25:13.468Z,1.02
2022-10-14T04:27:40.228Z,1.05
2022-10-14T04:30:07.484Z,1.00
2022-10-14T04:32:34.186Z,1.17
2022-10-14T04:35:00.895Z,1.00
2022-10-14T04:37:29.100Z,1.10
2022-10-14T04:39:55.818Z,1.10
2022-10-14T04:42:22.770Z,1.10
2022-10-14T04:44:50.655Z,1.08
2022-10-14T04:47:17.387Z,0.93
2022-10-14T04:49:44.093Z,1.30
2022-10-14T04:52:10.795Z,1.23
2022-10-14T04:54:37.526Z,1.20
2022-10-14T04:57:04.415Z,1.00
2022-10-14T04:59:31.260Z,0.90
2022-10-14T05:01:58.053Z,1.00
2022-10-14T05:04:24.868Z,1.30
2022-10-14T05:06:51.778Z,1.02
2022-10-14T05:09:18.493Z,1.27
2022-10-14T05:11:45.199Z,1.10
2022-10-14T05:14:11.970Z,1.20
2022-10-14T05:16:39.269Z,1.00
2022-10-14T05:19:05.984Z,1.02
2022-10-14T05:21:32.712Z,1.20
2022-10-14T05:23:59.453Z,1.20
2022-10-14T05:26:26.318Z,1.23
2022-10-14T05:28:53.195Z,0.95
2022-10-14T05:31:20.000Z,1.10
2022-10-14T05:33:46.698Z,1.30
2022-10-14T05:36:13.394Z,1.30
2022-10-14T05:38:40.091Z,1.30
2022-10-14T05:41:06.830Z,1.15
2022-10-14T05:43:33.616Z,1.17
2022-10-14T05:46:00.807Z,1.50
2022-10-14T05:48:27.556Z,1.10
2022-10-14T05:50:54.314Z,1.00
2022-10-14T05:53:21.025Z,1.25
2022-10-14T05:55:48.522Z,1.00
2022-10-14T05:58:15.247Z,1.20
2022-10-14T06:00:41.978Z,1.20
2022-10-14T06:03:10.760Z,0.98
2022-10-14T06:05:37.608Z,1.00
2022-10-14T06:08:05.097Z,1.40
2022-10-14T06:10:31.894Z,0.88
2022-10-14T06:12:58.658Z,1.15
2022-10-14T06:15:25.477Z,0.95
2022-10-14T06:17:52.197Z,1.30
2022-10-14T06:20:18.897Z,1.00
2022-10-14T06:22:45.730Z,1.00
2022-10-14T06:25:12.471Z,1.10
2022-10-14T06:27:39.375Z,1.17
2022-10-14T06:30:06.497Z,1.05
2022-10-14T06:32:33.420Z,1.13
2022-10-14T06:35:00.466Z,1.35
2022-10-14T06:37:27.332Z,0.80
2022-10-14T06:39:54.288Z,0.90
2022-10-14T06:42:21.061Z,1.02
2022-10-14T06:44:48.154Z,1.10
2022-10-14T06:47:14.993Z,0.98
2022-10-14T06:49:41.855Z,1.05
2022-10-14T06:52:08.580Z,1.05
2022-10-14T06:54:39.097Z,1.15
2022-10-14T06:57:06.555Z,1.00
2022-10-14T06:59:33.370Z,1.10
2022-10-14T07:02:00.193Z,1.10
2022-10-14T07:04:27.236Z,0.90
2022-10-14T07:06:55.186Z,1.23
2022-10-14T07:09:21.907Z,1.13
2022-10-14T07:11:48.623Z,1.15
2022-10-14T07:14:15.330Z,1.00
2022-10-14T07:16:43.828Z,0.98
2022-10-14T07:19:10.751Z,1.13
2022-10-14T07:21:37.494Z,1.08
2022-10-14T07:24:04.578Z,1.00
2022-10-14T07:26:31.596Z,0.80
2022-10-14T07:28:58.743Z,1.00
2022-10-14T07:31:26.370Z,1.00
2022-10-14T07:33:53.279Z,1.00
2022-10-14T07:36:22.542Z,1.33
2022-10-14T07:38:50.139Z,1.10
2022-10-14T07:41:19.123Z,1.00
2022-10-14T07:43:58.131Z,0.90
2022-10-14T07:46:32.993Z,0.90
2022-10-14T07:49:04.228Z,0.93
2022-10-14T07:51:31.069Z,0.90
2022-10-14T07:53:58.771Z,0.90
2022-10-14T07:56:25.677Z,1.10
2022-10-14T07:58:52.686Z,0.80
2022-10-14T08:01:19.587Z,0.95
2022-10-14T08:03:46.798Z,0.90
2022-10-14T08:06:13.642Z,0.90
2022-10-14T08:08:40.585Z,0.93
2022-10-14T08:11:27.212Z,0.95
2022-10-14T08:13:53.946Z,1.00
2022-10-14T08:16:23.118Z,1.00
2022-10-14T08:18:50.299Z,0.90
2022-10-14T08:21:17.494Z,0.93
2022-10-14T08:23:44.531Z,1.00
2022-10-14T08:26:16.493Z,1.20
2022-10-14T08:28:43.412Z,1.20
2022-10-14T08:31:10.834Z,1.10
2022-10-14T08:33:37.918Z,1.00
2022-10-14T08:36:06.044Z,1.20
2022-10-14T08:38:33.139Z,1.00
2022-10-14T08:41:41.315Z,1.17
2022-10-14T08:44:49.602Z,1.20
2022-10-14T08:47:17.380Z,1.00
2022-10-14T08:49:56.186Z,1.25
2022-10-14T08:52:34.939Z,1.30
2022-10-14T08:55:11.259Z,1.30
2022-10-14T08:57:46.941Z,0.90
2022-10-14T09:00:14.210Z,1.50
2022-10-14T09:02:47.968Z,1.92
2022-10-14T09:05:17.014Z,1.20
2022-10-14T09:07:44.610Z,1.23
2022-10-14T09:10:39.963Z,1.25
2022-10-14T09:13:32.661Z,1.27
2022-10-14T09:16:13.187Z,1.20
2022-10-14T09:18:42.293Z,1.30
2022-10-14T09:21:40.542Z,1.20
2022-10-14T09:24:18.129Z,1.38
2022-10-14T09:26:46.865Z,1.20
2022-10-14T09:29:23.693Z,1.20
2022-10-14T09:31:50.558Z,1.20
2022-10-14T09:34:20.206Z,1.30
2022-10-14T09:36:47.605Z,1.33
2022-10-14T09:39:14.754Z,1.40
2022-10-14T09:41:41.519Z,1.40
2022-10-14T09:44:25.790Z,1.40
2022-10-14T09:47:02.280Z,1.23
2022-10-14T09:49:34.053Z,1.50
2022-10-14T09:52:02.261Z,1.30
2022-10-14T09:54:30.794Z,1.30
2022-10-14T09:57:08.481Z,1.40
2022-10-14T09:59:48.618Z,1.02
2022-10-14T10:02:42.317Z,1.15
2022-10-14T10:05:24.174Z,1.35
2022-10-14T10:08:20.454Z,1.27
2022-10-14T10:11:18.321Z,1.08
2022-10-14T10:13:46.295Z,1.95
2022-10-14T10:16:27.199Z,1.65
2022-10-14T10:18:55.458Z,1.42
2022-10-14T10:21:27.032Z,1.30
2022-10-14T10:23:56.367Z,1.55
2022-10-14T10:26:40.724Z,1.08
2022-10-14T10:29:11.619Z,1.50
2022-10-14T10:32:30.171Z,1.33
2022-10-14T10:35:17.556Z,1.23
2022-10-14T10:38:00.475Z,1.10
2022-10-14T10:40:29.966Z,1.02
2022-10-14T10:43:27.565Z,1.50
2022-10-14T10:46:20.600Z,1.30
2022-10-14T10:49:18.942Z,1.17
2022-10-14T10:51:57.359Z,1.10
2022-10-14T10:54:38.413Z,1.30
2022-10-14T10:57:30.389Z,1.17
2022-10-14T11:00:09.046Z,1.40
2022-10-14T11:02:54.870Z,1.02
2022-10-14T11:05:46.113Z,1.17
2022-10-14T11:08:40.098Z,1.10
2022-10-14T11:11:47.004Z,1.02
2022-10-14T11:14:19.184Z,1.10
2022-10-14T11:16:57.438Z,1.27
2022-10-14T11:19:54.610Z,1.33
2022-10-14T11:22:49.179Z,1.40
2022-10-14T11:25:44.488Z,1.30
2022-10-14T11:28:28.469Z,1.10
2022-10-14T11:31:10.137Z,1.30
2022-10-14T11:34:03.361Z,1.25
2022-10-14T11:36:40.149Z,1.20
2022-10-14T11:39:22.533Z,1.20
2022-10-14T11:41:58.924Z,1.27
2022-10-14T11:47:16.141Z,1.30
2022-10-14T11:49:47.758Z,1.10
2022-10-14T11:52:24.598Z,1.38
2022-10-14T11:55:04.221Z,1.08
2022-10-14T11:57:39.300Z,1.05
2022-10-14T12:03:05.481Z,1.13
2022-10-14T12:05:47.464Z,1.10
2022-10-14T12:08:46.287Z,1.52
2022-10-14T12:11:48.647Z,1.48
2022-10-14T12:14:29.808Z,1.23
2022-10-14T12:16:56.819Z,1.20
2022-10-14T12:19:25.651Z,1.20
2022-10-14T12:21:57.492Z,1.08
2022-10-14T12:24:26.341Z,1.00
2022-10-14T12:26:54.299Z,1.20
2022-10-14T12:29:24.621Z,0.98
2022-10-14T12:32:04.299Z,1.10
2022-10-14T12:34:41.161Z,1.25
2022-10-14T12:37:31.795Z,1.30
2022-10-14T12:40:07.807Z,1.33
2022-10-14T12:42:44.321Z,1.20
2022-10-14T12:45:37.461Z,1.35
2022-10-14T12:48:20.842Z,1.42
2022-10-14T12:50:48.353Z,1.40
2022-10-14T12:53:25.206Z,1.30
2022-10-14T12:55:59.159Z,1.58
2022-10-14T12:58:35.919Z,1.50
2022-10-14T13:01:22.388Z,1.50
2022-10-14T13:03:58.843Z,1.20
2022-10-14T13:06:37.630Z,1.42
2022-10-14T13:09:13.777Z,1.67
2022-10-14T13:11:52.764Z,1.40
2022-10-14T13:14:31.284Z,1.55
2022-10-14T13:17:13.513Z,1.50
2022-10-14T13:19:43.569Z,1.20
2022-10-14T13:22:31.519Z,1.20
2022-10-14T13:25:17.857Z,1.48
2022-10-14T13:28:03.045Z,1.40
2022-10-14T13:30:54.453Z,1.20
2022-10-14T13:33:25.551Z,1.30
2022-10-14T13:35:58.146Z,1.20
2022-10-14T13:38:25.272Z,1.63
2022-10-14T13:40:56.447Z,1.42
2022-10-14T13:43:29.068Z,1.33
2022-10-14T13:46:05.894Z,1.55
2022-10-14T13:48:39.796Z,1.52
2022-10-14T13:51:37.245Z,1.27
2022-10-14T13:54:21.878Z,1.20
2022-10-14T13:57:42.657Z,1.33
2022-10-14T14:02:48.077Z,1.48
2022-10-14T14:05:17.748Z,1.42
2022-10-14T14:10:32.222Z,1.50
2022-10-14T14:13:00.652Z,1.23
2022-10-14T14:15:27.688Z,1.30
2022-10-14T14:17:54.559Z,1.20
2022-10-14T14:20:28.701Z,1.20
2022-10-14T14:22:57.891Z,1.20
2022-10-14T14:25:35.744Z,1.42
2022-10-14T14:28:05.780Z,1.38
2022-10-14T14:30:36.772Z,1.10
2022-10-14T14:33:07.066Z,1.30
2022-10-14T14:35:33.781Z,1.60
2022-10-14T14:38:00.667Z,1.20
2022-10-14T14:40:31.269Z,1.50
2022-10-14T14:42:59.551Z,1.33
2022-10-14T14:45:29.304Z,1.98
2022-10-14T14:47:57.565Z,3.03
2022-10-14T14:50:36.490Z,2.35
2022-10-14T14:53:10.041Z,2.20
2022-10-14T14:55:38.739Z,2.20
2022-10-14T14:58:06.714Z,1.80
2022-10-14T15:00:33.474Z,1.80
2022-10-14T15:03:01.443Z,1.27
2022-10-14T15:05:28.320Z,1.70
2022-10-14T15:07:56.083Z,1.58
2022-10-14T15:10:25.796Z,1.40
2022-10-14T15:12:54.225Z,1.30
2022-10-14T15:15:32.337Z,1.30
2022-10-14T15:18:20.843Z,1.60
2022-10-14T15:20:49.371Z,1.42
2022-10-14T15:23:38.314Z,1.15
2022-10-14T15:26:25.831Z,1.30
2022-10-14T15:29:07.664Z,0.80
2022-10-14T15:31:35.049Z,1.00
2022-10-14T15:34:01.841Z,1.05
2022-10-14T15:36:29.434Z,1.00
2022-10-14T15:38:56.651Z,0.88
2022-10-14T15:41:23.355Z,0.80
2022-10-14T15:43:50.059Z,0.70
2022-10-14T15:46:35.399Z,0.75
2022-10-14T15:49:03.820Z,0.95
2022-10-14T15:51:31.050Z,0.70
2022-10-14T15:53:58.134Z,0.55
2022-10-14T15:56:24.856Z,0.60
2022-10-14T15:58:51.568Z,0.50
2022-10-14T16:01:20.548Z,0.80
2022-10-14T16:03:52.377Z,0.50
2022-10-14T16:06:19.458Z,0.73
2022-10-14T16:08:48.945Z,0.52
2022-10-14T16:11:35.935Z,0.98
2022-10-14T16:14:02.735Z,1.38
2022-10-14T16:16:32.995Z,1.50
2022-10-14T16:19:02.518Z,1.38
2022-10-14T16:21:33.241Z,1.80
2022-10-14T16:24:00.173Z,2.38
2022-10-14T16:26:27.082Z,2.28
2022-10-14T16:28:54.030Z,2.20
2022-10-14T16:31:21.485Z,1.60
2022-10-14T16:33:51.643Z,1.85
2022-10-14T16:36:18.427Z,1.50
2022-10-14T16:38:45.128Z,1.20
2022-10-14T16:41:12.086Z,1.20
2022-10-14T16:43:38.855Z,5.45
2022-10-14T16:46:07.506Z,2.75
2022-10-14T16:48:36.026Z,2.45
2022-10-14T16:51:02.902Z,1.83
2022-10-14T16:53:41.980Z,2.10
2022-10-14T16:56:38.173Z,2.10
2022-10-14T16:59:04.999Z,2.13
2022-10-14T17:01:31.843Z,2.20
2022-10-14T17:03:58.706Z,1.90
2022-10-14T17:06:25.680Z,1.48
2022-10-14T17:08:52.508Z,2.28
2022-10-14T17:11:19.472Z,2.25
2022-10-14T17:13:46.394Z,2.45
2022-10-14T17:16:13.202Z,2.10
2022-10-14T17:18:40.026Z,1.42
2022-10-14T17:21:08.437Z,2.05
2022-10-14T17:23:35.949Z,1.33
2022-10-14T17:26:04.164Z,1.40
2022-10-14T17:28:31.173Z,1.30
2022-10-14T17:30:59.461Z,1.50
2022-10-14T17:33:26.261Z,1.30
2022-10-14T17:35:57.286Z,1.52
2022-10-14T17:38:28.015Z,1.63
2022-10-14T17:41:08.251Z,1.40
2022-10-14T17:43:35.636Z,1.50
2022-10-14T17:48:35.209Z,1.40
2022-10-14T17:51:02.552Z,1.35
2022-10-14T17:53:29.323Z,1.40
2022-10-14T17:55:57.753Z,1.60
2022-10-14T17:58:24.630Z,1.40
2022-10-14T18:00:51.358Z,1.63
2022-10-14T18:03:18.537Z,1.25
2022-10-14T18:05:48.130Z,1.30
2022-10-14T18:08:15.775Z,1.30
2022-10-14T18:10:42.553Z,1.52
2022-10-14T18:13:09.268Z,1.60
2022-10-14T18:15:36.428Z,1.20
2022-10-14T18:18:03.175Z,1.40
2022-10-14T18:20:34.273Z,1.30
2022-10-14T18:23:02.962Z,1.33
2022-10-14T18:25:29.806Z,0.95
2022-10-14T18:27:56.586Z,1.20
2022-10-14T18:30:23.373Z,1.20
2022-10-14T18:32:50.085Z,1.17
2022-10-14T18:35:16.846Z,1.23
2022-10-14T18:37:43.607Z,1.25
2022-10-14T18:40:11.193Z,1.48
2022-10-14T18:42:38.182Z,1.52
2022-10-14T18:45:05.586Z,1.52
2022-10-14T18:47:32.516Z,1.55
2022-10-14T18:49:59.839Z,1.20
2022-10-14T18:52:26.699Z,1.40
2022-10-14T18:54:53.664Z,1.65
2022-10-14T18:57:21.124Z,1.85
2022-10-14T18:59:50.223Z,1.30
2022-10-14T19:02:17.964Z,1.30
2022-10-14T19:04:45.123Z,1.15
2022-10-14T19:07:12.184Z,1.30
2022-10-14T19:09:38.901Z,1.52
2022-10-14T19:12:26.040Z,1.80
2022-10-14T19:14:52.855Z,1.30
2022-10-14T19:17:19.636Z,1.35
2022-10-14T19:19:46.817Z,1.20
2022-10-14T19:22:14.689Z,1.15
2022-10-14T19:24:41.555Z,1.65
2022-10-14T19:27:08.314Z,1.00
2022-10-14T19:29:35.069Z,1.23
2022-10-14T19:32:01.778Z,1.42
2022-10-14T19:34:28.596Z,0.98
2022-10-14T19:36:55.450Z,1.75
2022-10-14T19:39:22.184Z,1.85
2022-10-14T19:41:48.967Z,2.33
2022-10-14T19:44:16.246Z,2.17
2022-10-14T19:46:43.665Z,1.52
2022-10-14T19:49:11.803Z,1.48
2022-10-14T19:51:38.623Z,1.50
2022-10-14T19:54:05.474Z,1.40
2022-10-14T19:56:32.316Z,1.25
2022-10-14T19:58:59.348Z,1.35
2022-10-14T20:01:27.896Z,1.30
2022-10-14T20:03:54.857Z,1.55
2022-10-14T20:06:21.929Z,1.38
2022-10-14T20:08:48.910Z,1.30
2022-10-14T20:11:19.114Z,1.15
2022-10-14T20:13:46.204Z,1.05
2022-10-14T20:16:13.353Z,1.00
2022-10-14T20:18:40.326Z,1.20
2022-10-14T20:21:07.523Z,1.13
2022-10-14T20:23:35.341Z,1.05
2022-10-14T20:26:11.471Z,1.27
2022-10-14T20:28:38.689Z,1.70
2022-10-14T20:31:09.714Z,1.02
2022-10-14T20:33:36.726Z,1.13
2022-10-14T20:36:21.707Z,1.35
2022-10-14T20:38:48.728Z,1.02
2022-10-14T20:41:20.754Z,1.00
2022-10-14T20:43:47.716Z,0.95
2022-10-14T20:46:14.566Z,1.20
2022-10-14T20:48:41.401Z,1.38
2022-10-14T20:51:12.373Z,1.10
2022-10-14T20:56:11.739Z,1.00
2022-10-14T20:58:38.476Z,1.27
2022-10-14T21:01:07.010Z,0.80
2022-10-14T21:03:33.864Z,1.10
2022-10-14T21:06:04.994Z,1.08
2022-10-14T21:08:31.925Z,1.20
2022-10-14T21:11:00.645Z,1.15
2022-10-14T21:13:28.796Z,0.85
2022-10-14T21:15:55.913Z,1.00
2022-10-14T21:18:23.069Z,0.93
2022-10-14T21:20:50.227Z,1.25
2022-10-14T21:23:16.984Z,1.05
2022-10-14T21:25:43.833Z,1.00
2022-10-14T21:28:10.648Z,0.98
2022-10-14T21:30:40.782Z,1.15
2022-10-14T21:33:07.503Z,1.30
2022-10-14T21:35:34.219Z,1.33
2022-10-14T21:38:00.953Z,1.20
2022-10-14T21:40:27.738Z,1.08
2022-10-14T21:42:54.560Z,1.00
2022-10-14T21:45:21.426Z,1.17
2022-10-14T21:47:48.168Z,1.02
2022-10-14T21:50:14.969Z,1.17
2022-10-14T21:52:41.669Z,1.00
2022-10-14T21:55:08.851Z,0.88
2022-10-14T21:57:35.596Z,0.90
2022-10-14T22:00:02.319Z,1.30
2022-10-14T22:02:29.219Z,0.95
2022-10-14T22:04:55.906Z,0.90
2022-10-14T22:07:22.741Z,1.00
2022-10-14T22:09:49.524Z,0.93
2022-10-14T22:12:16.607Z,1.00
2022-10-14T22:14:43.321Z,0.98
2022-10-14T22:17:10.028Z,0.80
2022-10-14T22:19:36.746Z,0.98
2022-10-14T22:22:04.320Z,0.80
2022-10-14T22:24:31.051Z,0.85
2022-10-14T22:26:57.804Z,1.02
2022-10-14T22:29:24.519Z,0.68
2022-10-14T22:31:51.225Z,0.98
2022-10-14T22:34:18.178Z,0.77
2022-10-14T22:36:45.008Z,1.20
2022-10-14T22:39:13.451Z,0.85
2022-10-14T22:41:40.160Z,0.90
2022-10-14T22:44:08.382Z,0.90
2022-10-14T22:46:36.098Z,1.00
2022-10-14T22:49:02.827Z,1.08
2022-10-14T22:51:34.495Z,0.80
2022-10-14T22:54:01.235Z,1.10
2022-10-14T22:56:28.676Z,0.85
2022-10-14T22:58:56.117Z,0.73
2022-10-14T23:01:22.963Z,0.90
2022-10-14T23:03:49.772Z,0.80
2022-10-14T23:06:16.555Z,0.85
2022-10-14T23:08:43.549Z,0.80
2022-10-14T23:11:15.235Z,0.93
2022-10-14T23:13:42.057Z,0.77
2022-10-14T23:16:10.821Z,0.60
2022-10-14T23:18:37.784Z,1.25
2022-10-14T23:21:11.512Z,1.10
2022-10-14T23:23:38.351Z,0.82
2022-10-14T23:26:05.555Z,0.73
2022-10-14T23:28:32.336Z,0.70
2022-10-14T23:30:59.107Z,0.90
2022-10-14T23:33:26.105Z,0.80
2022-10-14T23:35:52.847Z,0.68
2022-10-14T23:38:19.562Z,0.90
2022-10-14T23:40:46.287Z,0.90
2022-10-14T23:43:13.001Z,0.75
2022-10-14T23:45:39.725Z,0.90
2022-10-14T23:48:06.995Z,0.60
2022-10-14T23:50:33.717Z,0.60
2022-10-14T23:53:00.409Z,0.70
2022-10-14T23:55:27.166Z,0.82
2022-10-14T23:57:53.910Z,0.63
